Time;durP1;ratioP1;P1;durP2;ratioP2;P2;SDS_P1;SDS_P2;PMS_P1;PMS_P2;Temp;Humidity;BMP_temperature;BMP_pressure;BME280_temperature;BME280_humidity;BME280_pressure;Samples;Min_cycle;Max_cycle;Signal;HPM_P1;HPM_P2
2022/07/18 00:00:13;;;;;;;2.30;2.10;;;19.00;59.80;;;;;;5011354;28;20206;-59
2022/07/18 00:02:39;;;;;;;2.60;2.40;;;18.90;60.10;;;;;;5012542;28;20258;-60
2022/07/18 00:05:05;;;;;;;2.88;2.60;;;18.80;60.70;;;;;;5008658;28;20438;-59
2022/07/18 00:07:31;;;;;;;3.65;2.60;;;18.80;60.80;;;;;;5011863;28;20199;-61
2022/07/18 00:09:57;;;;;;;2.20;1.80;;;18.80;60.70;;;;;;5011461;28;20188;-61
2022/07/18 00:12:22;;;;;;;5.30;2.20;;;18.70;60.60;;;;;;5008225;28;20211;-61
2022/07/18 00:14:48;;;;;;;3.77;2.50;;;18.70;60.60;;;;;;5012949;28;20270;-61
2022/07/18 00:17:14;;;;;;;2.33;2.00;;;18.70;61.00;;;;;;5011170;28;20206;-60
2022/07/18 00:19:39;;;;;;;3.10;2.23;;;18.70;61.20;;;;;;5009487;28;20187;-61
2022/07/18 00:22:05;;;;;;;2.60;2.40;;;18.60;61.40;;;;;;5011546;28;20636;-60
2022/07/18 00:24:31;;;;;;;2.45;2.20;;;18.60;61.70;;;;;;5011340;28;20800;-59
2022/07/18 00:26:58;;;;;;;2.23;2.10;;;18.40;62.50;;;;;;5008304;28;20211;-59
2022/07/18 00:29:24;;;;;;;2.67;2.47;;;18.70;64.50;;;;;;5010457;28;21070;-59
2022/07/18 00:31:49;;;;;;;2.40;2.20;;;18.30;63.80;;;;;;5012176;28;20257;-59
2022/07/18 00:34:15;;;;;;;2.20;2.00;;;18.20;63.70;;;;;;5010377;28;20445;-59
2022/07/18 00:36:41;;;;;;;2.40;2.20;;;18.20;63.50;;;;;;5008317;28;20217;-60
2022/07/18 00:39:06;;;;;;;2.60;2.40;;;18.20;63.50;;;;;;5009481;28;20195;-60
2022/07/18 00:41:32;;;;;;;2.03;1.93;;;18.30;64.00;;;;;;5010276;28;20883;-59
2022/07/18 00:43:57;;;;;;;2.60;2.40;;;18.20;63.50;;;;;;5010191;28;20611;-59
2022/07/18 00:46:24;;;;;;;2.70;2.30;;;18.20;63.50;;;;;;5010962;28;20203;-60
2022/07/18 00:48:51;;;;;;;4.80;2.40;;;18.20;63.50;;;;;;5010375;28;20952;-60
2022/07/18 00:51:17;;;;;;;2.22;2.03;;;18.20;63.70;;;;;;5010606;28;20716;-59
2022/07/18 00:53:45;;;;;;;2.13;1.98;;;18.20;63.70;;;;;;5011382;28;20719;-59
2022/07/18 00:56:13;;;;;;;2.33;2.10;;;18.10;63.60;;;;;;5009984;28;20270;-60
2022/07/18 00:58:39;;;;;;;1.90;1.80;;;18.10;63.80;;;;;;5009638;28;20551;-58
2022/07/18 01:03:49;;;;;;;2.10;1.98;;;18.10;64.10;;;;;;5011909;28;20507;-60
2022/07/18 01:06:14;;;;;;;3.27;2.17;;;18.00;64.30;;;;;;5008817;28;20285;-59
2022/07/18 01:08:42;;;;;;;2.27;1.80;;;18.00;65.30;;;;;;5010383;28;20183;-59
2022/07/18 01:11:09;;;;;;;2.00;1.90;;;17.90;64.80;;;;;;5006488;28;20209;-59
2022/07/18 01:13:35;;;;;;;2.10;2.00;;;17.80;65.20;;;;;;5023640;28;20198;-61
2022/07/18 01:16:01;;;;;;;2.72;2.15;;;17.80;65.40;;;;;;5025259;28;20206;-61
2022/07/18 01:18:26;;;;;;;2.43;2.23;;;17.70;65.40;;;;;;5009621;28;20186;-59
2022/07/18 01:20:52;;;;;;;2.40;2.20;;;17.80;65.60;;;;;;5009685;28;20593;-59
2022/07/18 01:23:18;;;;;;;2.23;2.10;;;17.60;65.50;;;;;;5010933;28;20700;-59
2022/07/18 01:25:43;;;;;;;2.40;2.20;;;17.70;65.60;;;;;;5010121;28;20220;-61
2022/07/18 01:28:09;;;;;;;2.60;2.40;;;17.70;66.80;;;;;;5006557;28;20179;-59
2022/07/18 01:30:35;;;;;;;2.40;1.87;;;17.60;67.90;;;;;;5010649;28;20182;-59
2022/07/18 01:33:02;;;;;;;3.30;2.10;;;17.50;67.30;;;;;;5010350;28;20187;-60
2022/07/18 01:35:30;;;;;;;2.40;2.20;;;17.70;67.00;;;;;;5009645;28;20481;-59
2022/07/18 01:37:58;;;;;;;3.17;2.15;;;17.50;66.70;;;;;;5010671;28;20191;-60
2022/07/18 01:40:25;;;;;;;2.28;2.08;;;17.50;66.30;;;;;;5021437;28;20484;-61
2022/07/18 01:42:51;;;;;;;2.10;1.90;;;17.40;66.20;;;;;;5008877;28;20205;-59
2022/07/18 01:45:18;;;;;;;1.77;1.67;;;17.40;67.10;;;;;;5010698;28;20174;-59
2022/07/18 01:47:43;;;;;;;2.72;2.08;;;17.40;66.20;;;;;;5009904;28;20203;-59
2022/07/18 01:50:10;;;;;;;2.03;1.83;;;17.40;66.30;;;;;;5009470;28;20190;-59
2022/07/18 01:52:36;;;;;;;2.42;2.03;;;17.40;66.50;;;;;;5010471;28;20174;-60
2022/07/18 01:55:04;;;;;;;3.60;1.80;;;17.40;66.80;;;;;;5010722;28;20191;-59
2022/07/18 01:57:29;;;;;;;2.10;1.90;;;17.30;66.70;;;;;;5007855;28;20719;-59
2022/07/18 01:59:55;;;;;;;2.97;1.87;;;17.30;66.90;;;;;;5008740;28;20302;-60
2022/07/18 02:02:21;;;;;;;2.00;1.80;;;17.30;66.70;;;;;;5010329;28;20582;-59
2022/07/18 02:04:59;;;;;;;3.23;2.10;;;17.40;66.90;;;;;;5009008;28;20183;-59
2022/07/18 02:07:25;;;;;;;1.90;1.80;;;17.30;66.90;;;;;;5008339;28;20246;-59
2022/07/18 02:09:51;;;;;;;2.28;2.08;;;17.20;67.40;;;;;;5006480;28;20584;-59
2022/07/18 02:12:17;;;;;;;4.93;2.23;;;17.20;67.40;;;;;;5009129;28;20256;-59
2022/07/18 02:14:42;;;;;;;1.90;1.80;;;17.20;67.50;;;;;;5010665;28;20179;-59
2022/07/18 02:17:08;;;;;;;2.07;1.77;;;17.20;67.80;;;;;;5010665;28;20460;-60
2022/07/18 02:19:34;;;;;;;2.30;2.10;;;17.10;68.10;;;;;;5012008;28;20189;-59
2022/07/18 02:21:59;;;;;;;2.90;2.00;;;17.30;68.10;;;;;;5007733;28;20175;-59
2022/07/18 02:24:25;;;;;;;2.07;1.87;;;17.10;68.00;;;;;;5013651;28;20190;-60
2022/07/18 02:26:50;;;;;;;5.43;2.27;;;17.20;68.20;;;;;;5017854;28;20215;-59
2022/07/18 02:29:16;;;;;;;2.03;1.93;;;17.00;70.30;;;;;;5012176;28;20179;-58
2022/07/18 02:31:42;;;;;;;3.77;1.90;;;16.80;70.50;;;;;;5013715;28;20190;-58
2022/07/18 02:34:10;;;;;;;2.63;2.00;;;16.80;69.30;;;;;;5013179;28;20191;-59
2022/07/18 02:36:40;;;;;;;2.50;1.85;;;16.80;69.10;;;;;;5012294;28;20198;-59
2022/07/18 02:39:07;;;;;;;2.25;1.55;;;16.70;69.10;;;;;;5012346;28;20271;-59
2022/07/18 02:41:33;;;;;;;2.88;2.00;;;16.80;69.60;;;;;;5012003;28;20305;-58
2022/07/18 02:43:59;;;;;;;3.20;2.03;;;17.00;69.80;;;;;;5012792;28;20183;-59
2022/07/18 02:46:25;;;;;;;2.55;2.00;;;16.60;69.40;;;;;;5013808;28;20219;-59
2022/07/18 02:48:51;;;;;;;2.13;1.85;;;16.80;69.20;;;;;;5013305;28;20196;-59
2022/07/18 02:51:17;;;;;;;2.43;2.23;;;16.80;69.50;;;;;;5012572;28;20191;-59
2022/07/18 02:53:42;;;;;;;2.40;1.73;;;16.70;69.60;;;;;;5013164;28;20438;-59
2022/07/18 02:56:08;;;;;;;1.97;1.87;;;16.70;70.00;;;;;;5012987;28;20241;-59
2022/07/18 02:58:33;;;;;;;2.50;1.60;;;16.70;70.30;;;;;;5011486;28;20213;-59
2022/07/18 03:00:59;;;;;;;2.93;1.83;;;16.70;70.30;;;;;;5010800;28;20210;-58
2022/07/18 03:03:25;;;;;;;1.67;1.58;;;16.60;70.70;;;;;;5012565;28;20249;-59
2022/07/18 03:05:51;;;;;;;2.40;1.83;;;16.50;70.90;;;;;;5012499;28;20214;-59
2022/07/18 03:08:16;;;;;;;2.17;1.97;;;16.40;70.90;;;;;;5012729;28;20433;-59
2022/07/18 03:10:42;;;;;;;4.63;1.73;;;16.60;71.10;;;;;;5004529;28;20283;-58
2022/07/18 03:13:07;;;;;;;4.20;2.00;;;16.70;71.40;;;;;;5013219;28;20190;-58
2022/07/18 03:15:33;;;;;;;1.83;1.73;;;16.30;71.20;;;;;;5012886;28;20193;-58
2022/07/18 03:17:59;;;;;;;2.30;2.07;;;16.40;71.40;;;;;;5009941;28;20187;-59
2022/07/18 03:20:24;;;;;;;2.10;1.83;;;16.40;71.70;;;;;;5006027;28;20204;-58
2022/07/18 03:22:50;;;;;;;1.83;1.73;;;16.60;72.20;;;;;;5011936;28;20232;-61
2022/07/18 03:25:16;;;;;;;2.20;1.80;;;16.40;72.40;;;;;;5012999;28;20663;-61
2022/07/18 03:27:41;;;;;;;2.17;1.97;;;16.30;73.40;;;;;;5011741;28;20203;-60
2022/07/18 03:30:07;;;;;;;2.30;2.10;;;16.30;74.80;;;;;;5007554;28;20179;-60
2022/07/18 03:32:33;;;;;;;2.80;2.42;;;16.20;75.00;;;;;;5011622;28;20687;-60
2022/07/18 03:34:59;;;;;;;3.57;1.90;;;16.30;74.50;;;;;;5026706;28;20187;-60
2022/07/18 03:37:24;;;;;;;2.50;1.80;;;16.10;74.80;;;;;;5012375;28;20215;-60
2022/07/18 03:39:50;;;;;;;1.90;1.77;;;16.40;75.40;;;;;;5011415;28;20690;-60
2022/07/18 03:42:15;;;;;;;3.43;2.10;;;16.30;75.10;;;;;;5012317;28;20660;-60
2022/07/18 03:44:41;;;;;;;3.10;2.03;;;16.30;75.20;;;;;;5011984;28;20737;-60
2022/07/18 03:47:07;;;;;;;3.03;1.97;;;16.10;75.50;;;;;;5012280;28;20222;-60
2022/07/18 03:49:32;;;;;;;2.77;2.03;;;16.00;75.70;;;;;;5010646;28;20189;-59
2022/07/18 03:51:58;;;;;;;2.43;2.23;;;16.30;76.20;;;;;;5011069;28;20233;-58
2022/07/18 03:54:24;;;;;;;2.23;2.03;;;16.30;76.10;;;;;;5012865;28;20194;-58
2022/07/18 03:56:50;;;;;;;2.00;1.90;;;16.40;76.30;;;;;;5008589;28;20321;-59
2022/07/18 03:59:16;;;;;;;2.40;2.20;;;16.10;76.20;;;;;;5012255;28;20237;-59
2022/07/18 04:01:41;;;;;;;2.23;2.03;;;16.30;76.90;;;;;;5010721;28;20676;-59
2022/07/18 04:04:07;;;;;;;3.40;2.57;;;16.20;77.30;;;;;;5010047;28;20175;-59
2022/07/18 04:06:33;;;;;;;2.27;2.10;;;16.30;77.90;;;;;;5010744;28;20209;-59
2022/07/18 04:08:58;;;;;;;2.63;2.43;;;16.30;77.60;;;;;;5001503;28;20976;-59
2022/07/18 04:11:24;;;;;;;2.33;2.13;;;16.20;77.60;;;;;;5008073;28;20218;-59
2022/07/18 04:13:53;;;;;;;2.10;2.00;;;16.10;77.50;;;;;;5008833;28;20274;-60
2022/07/18 04:16:19;;;;;;;3.40;2.20;;;15.90;77.60;;;;;;5010863;28;20210;-61
2022/07/18 04:18:45;;;;;;;2.30;2.10;;;16.00;78.10;;;;;;5009086;28;20187;-57
2022/07/18 04:21:10;;;;;;;3.90;2.37;;;16.20;78.20;;;;;;5010819;28;20492;-57
2022/07/18 04:23:36;;;;;;;2.30;2.10;;;16.40;78.90;;;;;;5013991;28;20533;-57
2022/07/18 04:26:03;;;;;;;2.27;2.10;;;16.20;79.00;;;;;;5012261;28;20194;-56
2022/07/18 04:28:29;;;;;;;3.65;2.25;;;16.10;81.50;;;;;;5009362;28;20190;-57
2022/07/18 04:30:55;;;;;;;4.13;2.77;;;16.20;81.30;;;;;;5008127;28;20191;-56
2022/07/18 04:33:20;;;;;;;2.73;2.53;;;16.30;80.80;;;;;;5011162;28;20277;-56
2022/07/18 04:35:47;;;;;;;3.77;2.47;;;16.40;79.60;;;;;;5009679;28;20273;-56
2022/07/18 04:38:12;;;;;;;3.05;2.50;;;16.50;80.50;;;;;;5011321;28;20461;-58
2022/07/18 04:40:38;;;;;;;2.73;2.40;;;16.30;80.30;;;;;;5011686;28;20206;-57
2022/07/18 04:43:05;;;;;;;4.00;2.50;;;16.40;80.60;;;;;;5012719;28;20175;-58
2022/07/18 04:45:30;;;;;;;3.33;2.60;;;16.40;80.70;;;;;;5008114;28;20806;-58
2022/07/18 04:47:56;;;;;;;4.60;2.37;;;16.30;80.80;;;;;;5013455;28;20202;-58
2022/07/18 04:50:23;;;;;;;2.95;2.60;;;16.40;80.90;;;;;;5010602;28;20178;-57
2022/07/18 04:52:50;;;;;;;3.90;2.80;;;16.50;80.60;;;;;;5009531;28;20198;-56
2022/07/18 04:55:18;;;;;;;4.15;3.30;;;16.80;81.20;;;;;;5011345;28;20250;-57
2022/07/18 04:57:44;;;;;;;2.95;2.63;;;16.80;81.20;;;;;;5026828;28;20234;-56
2022/07/18 05:00:16;;;;;;;3.77;3.13;;;16.70;80.90;;;;;;5013494;28;20287;-57
2022/07/18 05:02:43;;;;;;;3.00;2.70;;;16.80;82.70;;;;;;5013290;28;20181;-57
2022/07/18 05:05:10;;;;;;;2.40;2.20;;;17.10;80.70;;;;;;5007919;28;20274;-60
2022/07/18 05:07:37;;;;;;;3.60;2.55;;;17.00;80.30;;;;;;5006130;28;20332;-61
2022/07/18 05:10:07;;;;;;;3.95;2.65;;;17.00;80.30;;;;;;5005830;28;20556;-61
2022/07/18 05:12:39;;;;;;;2.90;2.70;;;17.20;80.40;;;;;;5009026;28;20214;-61
2022/07/18 05:15:07;;;;;;;2.65;2.40;;;17.30;81.00;;;;;;5005193;28;20184;-61
2022/07/18 05:17:33;;;;;;;3.17;2.60;;;17.40;82.30;;;;;;5004185;28;20314;-61
2022/07/18 05:19:59;;;;;;;3.70;3.40;;;17.50;80.10;;;;;;5010725;28;20187;-61
2022/07/18 05:22:24;;;;;;;4.47;3.70;;;17.60;79.80;;;;;;5008788;28;20186;-61
2022/07/18 05:24:50;;;;;;;3.77;2.93;;;17.70;79.70;;;;;;5004226;28;20449;-61
2022/07/18 05:27:16;;;;;;;7.10;3.50;;;18.00;79.80;;;;;;5010035;28;20207;-61
2022/07/18 05:29:41;;;;;;;30.20;6.23;;;18.20;79.90;;;;;;5005690;28;20645;-61
2022/07/18 05:32:07;;;;;;;4.43;3.03;;;18.40;79.90;;;;;;5006598;28;20185;-60
2022/07/18 05:34:33;;;;;;;4.43;3.28;;;18.40;77.90;;;;;;5008171;28;20179;-61
2022/07/18 05:36:59;;;;;;;8.23;3.40;;;18.50;76.80;;;;;;5002982;28;22295;-61
2022/07/18 05:39:25;;;;;;;4.97;3.07;;;18.60;76.60;;;;;;5010319;28;20260;-61
2022/07/18 05:41:51;;;;;;;3.60;3.30;;;18.70;75.80;;;;;;5008661;28;20295;-61
2022/07/18 05:44:19;;;;;;;4.30;3.05;;;18.90;75.50;;;;;;5004413;28;20521;-61
2022/07/18 05:46:45;;;;;;;3.80;3.00;;;19.00;75.10;;;;;;5007926;28;20234;-61
2022/07/18 05:49:11;;;;;;;4.53;2.70;;;19.20;74.80;;;;;;5007477;28;20188;-61
2022/07/18 05:51:36;;;;;;;3.20;2.90;;;19.30;72.70;;;;;;5008598;28;20452;-61
2022/07/18 05:54:02;;;;;;;4.07;3.17;;;19.50;70.10;;;;;;5010625;28;20654;-61
2022/07/18 05:56:28;;;;;;;3.40;3.10;;;19.60;70.70;;;;;;5010471;28;20255;-61
2022/07/18 05:58:53;;;;;;;4.43;3.90;;;19.70;73.10;;;;;;5011102;28;20244;-61
2022/07/18 06:01:20;;;;;;;4.20;3.70;;;19.80;71.90;;;;;;5008985;28;21977;-61
2022/07/18 06:03:47;;;;;;;3.78;2.70;;;19.80;70.70;;;;;;5010809;28;20596;-62
2022/07/18 06:06:13;;;;;;;3.08;2.78;;;20.00;70.70;;;;;;5010208;28;20261;-61
2022/07/18 06:08:38;;;;;;;3.97;3.00;;;20.10;70.10;;;;;;5013669;28;20206;-61
2022/07/18 06:11:06;;;;;;;3.73;3.43;;;20.30;68.90;;;;;;5022914;28;20233;-61
2022/07/18 06:13:32;;;;;;;3.22;2.90;;;20.50;68.90;;;;;;5012963;28;20548;-61
2022/07/18 06:15:58;;;;;;;3.67;3.38;;;20.60;67.50;;;;;;5013105;28;20211;-61
2022/07/18 06:18:24;;;;;;;3.70;3.40;;;20.70;66.40;;;;;;5012870;28;20557;-61
2022/07/18 06:20:49;;;;;;;4.93;3.20;;;20.90;66.00;;;;;;5011663;28;20207;-61
2022/07/18 06:23:15;;;;;;;3.20;2.90;;;21.30;66.20;;;;;;5013395;28;20185;-61
2022/07/18 06:25:40;;;;;;;3.30;3.10;;;20.90;65.70;;;;;;5012374;28;20191;-61
2022/07/18 06:28:06;;;;;;;4.30;3.03;;;20.90;65.70;;;;;;5013645;28;20194;-61
2022/07/18 06:30:32;;;;;;;4.57;3.77;;;21.00;67.00;;;;;;5012056;28;20597;-61
2022/07/18 06:32:57;;;;;;;3.20;2.97;;;21.20;67.30;;;;;;5013318;28;20675;-61
2022/07/18 06:35:23;;;;;;;4.53;3.40;;;21.40;66.10;;;;;;5012279;28;20191;-61
2022/07/18 06:37:48;;;;;;;5.27;4.10;;;21.50;64.40;;;;;;5011770;28;20202;-61
2022/07/18 06:40:14;;;;;;;2.67;2.47;;;21.70;64.20;;;;;;5012598;28;20202;-61
2022/07/18 06:42:40;;;;;;;5.30;4.00;;;22.20;64.10;;;;;;5013026;28;20185;-60
2022/07/18 06:45:07;;;;;;;4.70;3.80;;;22.00;64.40;;;;;;5010643;28;20665;-59
2022/07/18 06:47:33;;;;;;;7.43;3.80;;;22.10;64.90;;;;;;5012980;28;20473;-59
2022/07/18 06:49:58;;;;;;;6.20;3.07;;;22.20;63.40;;;;;;5012317;28;20798;-60
2022/07/18 06:52:24;;;;;;;3.87;3.23;;;22.30;62.40;;;;;;5012917;28;20194;-60
2022/07/18 06:54:49;;;;;;;3.47;2.90;;;22.60;63.00;;;;;;5013896;28;20242;-61
2022/07/18 06:57:15;;;;;;;3.30;3.00;;;22.90;60.90;;;;;;5012952;28;20211;-60
2022/07/18 06:59:41;;;;;;;3.77;3.33;;;23.10;60.60;;;;;;5012544;28;20183;-60
2022/07/18 07:02:06;;;;;;;4.83;3.27;;;23.40;60.00;;;;;;5019426;28;20750;-60
2022/07/18 07:04:32;;;;;;;6.27;3.77;;;23.60;59.60;;;;;;5012327;28;20182;-60
2022/07/18 07:06:58;;;;;;;5.60;3.57;;;23.90;58.70;;;;;;5010368;28;20593;-60
2022/07/18 07:09:23;;;;;;;4.80;3.17;;;24.50;58.60;;;;;;5012633;28;20209;-61
2022/07/18 07:11:49;;;;;;;4.50;3.10;;;25.90;56.20;;;;;;5006485;28;20270;-62
2022/07/18 07:14:14;;;;;;;5.07;4.57;;;28.50;52.00;;;;;;5017120;28;20254;-60
2022/07/18 07:16:40;;;;;;;7.17;4.50;;;31.50;47.50;;;;;;5012102;28;20209;-61
2022/07/18 07:19:05;;;;;;;5.03;3.80;;;34.90;42.00;;;;;;5013602;28;20182;-61
2022/07/18 07:21:31;;;;;;;3.80;3.30;;;37.40;36.10;;;;;;5011885;28;20210;-62
2022/07/18 07:23:57;;;;;;;3.20;3.00;;;39.40;32.90;;;;;;5012848;28;20226;-61
2022/07/18 07:26:22;;;;;;;4.90;3.07;;;41.20;29.90;;;;;;5011754;28;20688;-61
2022/07/18 07:28:48;;;;;;;3.77;3.47;;;41.60;27.70;;;;;;5012177;28;20187;-63
2022/07/18 07:31:13;;;;;;;4.23;3.40;;;43.00;27.00;;;;;;5012724;28;20226;-63
2022/07/18 07:33:39;;;;;;;3.93;3.57;;;44.30;25.50;;;;;;5012368;28;20281;-62
2022/07/18 07:36:05;;;;;;;5.50;3.60;;;44.00;25.00;;;;;;5021430;28;20215;-62
2022/07/18 07:38:31;;;;;;;4.10;3.57;;;44.70;24.60;;;;;;5010908;28;20688;-62
2022/07/18 07:40:57;;;;;;;3.07;2.80;;;45.60;23.70;;;;;;5011952;28;20552;-63
2022/07/18 07:43:24;;;;;;;3.60;3.30;;;45.40;23.20;;;;;;5011523;28;20191;-63
2022/07/18 07:45:51;;;;;;;4.80;4.50;;;46.10;23.00;;;;;;5023222;28;20877;-63
2022/07/18 07:48:17;;;;;;;5.43;3.93;;;46.30;23.20;;;;;;5011852;28;20532;-63
2022/07/18 07:50:43;;;;;;;5.33;4.17;;;47.40;22.90;;;;;;5007569;28;20592;-62
2022/07/18 07:53:09;;;;;;;4.50;4.10;;;47.90;22.40;;;;;;5017394;28;20529;-63
2022/07/18 07:55:34;;;;;;;3.67;3.37;;;48.20;21.50;;;;;;5010218;28;20209;-62
2022/07/18 07:58:00;;;;;;;6.13;4.07;;;46.80;21.40;;;;;;5010845;28;20494;-62
2022/07/18 08:00:27;;;;;;;5.50;4.07;;;47.30;21.40;;;;;;5014923;28;20219;-63
2022/07/18 08:03:01;;;;;;;3.93;3.40;;;47.70;21.00;;;;;;5011874;28;20189;-62
2022/07/18 08:05:29;;;;;;;4.07;3.67;;;45.60;21.50;;;;;;5011084;28;20434;-63
2022/07/18 08:07:55;;;;;;;8.17;7.47;;;45.20;22.50;;;;;;5011474;28;20788;-63
2022/07/18 08:10:21;;;;;;;4.17;3.80;;;46.10;22.10;;;;;;5038874;28;20444;-63
2022/07/18 08:12:46;;;;;;;4.13;3.60;;;45.10;22.10;;;;;;5011749;28;20438;-62
2022/07/18 08:15:13;;;;;;;6.27;3.63;;;43.40;23.70;;;;;;5010502;28;20198;-62
2022/07/18 08:17:39;;;;;;;5.90;4.10;;;44.20;23.10;;;;;;5011011;28;20292;-63
2022/07/18 08:20:05;;;;;;;3.50;3.20;;;44.60;23.30;;;;;;5010929;28;20438;-62
2022/07/18 08:22:31;;;;;;;4.30;3.67;;;44.60;23.20;;;;;;5011899;28;20231;-62
2022/07/18 08:24:56;;;;;;;19.37;5.80;;;45.30;23.30;;;;;;5010074;28;20497;-63
2022/07/18 08:27:22;;;;;;;4.33;3.50;;;45.30;23.10;;;;;;5015254;28;20282;-65
2022/07/18 08:29:47;;;;;;;4.10;3.70;;;45.90;22.80;;;;;;4999875;28;20188;-62
2022/07/18 08:32:13;;;;;;;4.50;3.87;;;45.60;22.60;;;;;;5011565;28;20195;-63
2022/07/18 08:34:39;;;;;;;5.13;3.83;;;45.50;22.70;;;;;;5010625;28;20195;-61
2022/07/18 08:37:05;;;;;;;4.90;4.40;;;45.00;22.80;;;;;;5011039;28;20318;-62
2022/07/18 08:39:30;;;;;;;5.53;3.90;;;44.90;23.20;;;;;;5011262;28;20640;-61
2022/07/18 08:42:00;;;;;;;7.90;3.87;;;45.10;23.10;;;;;;5010734;28;20477;-62
2022/07/18 08:44:28;;;;;;;4.73;3.23;;;45.40;22.80;;;;;;5011643;28;20191;-62
2022/07/18 08:46:59;;;;;;;3.93;3.53;;;45.50;22.70;;;;;;5010998;28;20505;-62
2022/07/18 08:49:25;;;;;;;4.37;3.97;;;45.70;22.80;;;;;;5010284;28;20426;-62
2022/07/18 08:51:51;;;;;;;4.27;3.53;;;44.30;23.20;;;;;;5011202;28;20520;-63
2022/07/18 08:54:17;;;;;;;7.70;4.20;;;44.20;23.30;;;;;;5010475;28;20469;-62
2022/07/18 08:56:42;;;;;;;4.90;4.00;;;44.20;23.40;;;;;;5010310;28;20206;-62
2022/07/18 08:59:08;;;;;;;6.37;4.97;;;43.30;23.30;;;;;;5009729;28;20199;-62
2022/07/18 09:01:34;;;;;;;7.60;7.00;;;43.40;23.70;;;;;;5011438;28;20264;-62
2022/07/18 09:04:15;;;;;;;5.70;4.10;;;44.00;23.80;;;;;;5010488;28;20272;-63
2022/07/18 09:06:49;;;;;;;7.90;5.00;;;44.10;23.70;;;;;;5009513;28;20202;-63
2022/07/18 09:09:17;;;;;;;3.10;2.90;;;43.60;23.20;;;;;;5004531;28;20433;-62
2022/07/18 09:11:54;;;;;;;5.00;4.00;;;43.80;23.60;;;;;;5010445;28;20934;-62
2022/07/18 09:14:30;;;;;;;4.37;3.47;;;43.30;23.80;;;;;;4998311;28;21273;-63
2022/07/18 09:17:01;;;;;;;8.70;7.77;;;44.30;23.20;;;;;;5014320;28;20824;-62
2022/07/18 09:19:27;;;;;;;6.00;4.30;;;44.50;23.20;;;;;;5013589;28;20543;-62
2022/07/18 09:21:52;;;;;;;4.07;3.80;;;43.50;23.20;;;;;;5010720;28;20986;-62
2022/07/18 09:24:18;;;;;;;4.83;3.20;;;44.00;22.80;;;;;;5010322;28;20195;-62
2022/07/18 09:26:46;;;;;;;4.27;3.13;;;44.60;22.50;;;;;;5009147;28;20285;-63
2022/07/18 09:29:15;;;;;;;3.60;3.30;;;44.60;22.30;;;;;;5010128;28;20202;-63
2022/07/18 09:31:48;;;;;;;5.47;3.47;;;44.70;22.20;;;;;;5010684;28;20449;-62
2022/07/18 09:34:14;;;;;;;3.37;2.90;;;43.80;22.00;;;;;;5013584;28;20425;-62
2022/07/18 09:36:55;;;;;;;3.60;3.30;;;43.80;22.10;;;;;;5009845;28;20799;-62
2022/07/18 09:39:20;;;;;;;3.37;3.07;;;44.30;21.80;;;;;;5010236;28;20193;-62
2022/07/18 09:41:46;;;;;;;3.20;3.00;;;45.10;21.30;;;;;;5010129;28;20461;-62
2022/07/18 09:44:19;;;;;;;3.60;3.23;;;44.50;21.20;;;;;;5009589;28;20266;-62
2022/07/18 09:47:04;;;;;;;2.90;2.70;;;44.10;21.00;;;;;;5010331;28;20603;-61
2022/07/18 09:49:34;;;;;;;3.97;3.67;;;44.30;21.10;;;;;;5007509;28;20854;-61
2022/07/18 09:52:05;;;;;;;3.60;3.27;;;44.70;20.90;;;;;;5006819;28;20438;-62
2022/07/18 09:54:42;;;;;;;3.60;3.30;;;44.20;20.80;;;;;;5010205;28;20559;-62
2022/07/18 09:57:08;;;;;;;4.03;3.73;;;43.20;20.50;;;;;;5009469;28;20465;-62
2022/07/18 09:59:37;;;;;;;4.43;4.13;;;43.30;21.40;;;;;;5010911;28;20492;-62
2022/07/18 10:02:06;;;;;;;4.57;4.27;;;44.30;21.20;;;;;;5009721;28;20857;-62
2022/07/18 10:04:32;;;;;;;5.17;4.40;;;44.80;20.40;;;;;;5008971;28;20883;-62
2022/07/18 10:06:57;;;;;;;4.27;3.97;;;45.20;20.30;;;;;;5009659;28;20477;-62
2022/07/18 10:09:23;;;;;;;3.80;3.50;;;43.90;20.00;;;;;;5010233;28;20187;-62
2022/07/18 10:11:49;;;;;;;3.40;3.20;;;44.60;20.50;;;;;;5009819;28;20325;-62
2022/07/18 10:14:14;;;;;;;3.10;2.90;;;45.40;19.60;;;;;;5009312;28;20202;-62
2022/07/18 10:16:41;;;;;;;4.27;3.90;;;44.40;19.80;;;;;;5008908;28;20689;-62
2022/07/18 10:19:06;;;;;;;4.00;3.70;;;44.40;20.60;;;;;;5009804;28;20321;-62
2022/07/18 10:21:33;;;;;;;3.30;3.00;;;44.70;20.20;;;;;;5008649;28;20564;-62
2022/07/18 10:24:00;;;;;;;3.30;3.10;;;45.10;19.70;;;;;;5009555;28;20202;-63
2022/07/18 10:26:27;;;;;;;2.87;2.67;;;43.50;19.60;;;;;;5009931;28;20587;-63
2022/07/18 10:28:56;;;;;;;7.70;2.83;;;42.30;20.80;;;;;;5024083;28;20533;-62
2022/07/18 10:31:38;;;;;;;2.80;2.60;;;40.40;21.80;;;;;;5025082;28;20491;-62
2022/07/18 10:34:07;;;;;;;3.10;2.90;;;40.20;22.30;;;;;;5009785;28;20524;-61
2022/07/18 10:36:33;;;;;;;2.93;2.73;;;39.00;23.20;;;;;;5000076;28;20958;-61
2022/07/18 10:39:23;;;;;;;3.10;2.90;;;38.20;23.80;;;;;;5012091;28;20429;-61
2022/07/18 10:41:52;;;;;;;3.07;2.80;;;37.20;24.30;;;;;;5013378;28;20477;-61
2022/07/18 10:44:24;;;;;;;3.43;3.17;;;36.40;25.30;;;;;;5008212;28;20449;-61
2022/07/18 10:47:05;;;;;;;2.83;2.63;;;35.90;25.50;;;;;;5012539;28;20476;-61
2022/07/18 10:49:49;;;;;;;2.67;2.47;;;36.10;25.60;;;;;;5027251;28;20763;-61
2022/07/18 10:52:33;;;;;;;4.70;3.13;;;36.70;25.10;;;;;;5013057;28;20465;-62
2022/07/18 10:55:02;;;;;;;4.03;2.67;;;37.00;24.80;;;;;;5027734;28;21280;-62
2022/07/18 10:57:31;;;;;;;4.13;2.40;;;37.60;24.50;;;;;;5013685;28;20456;-62
2022/07/18 11:00:11;;;;;;;2.90;2.30;;;37.60;23.90;;;;;;5011892;28;20449;-62
2022/07/18 11:02:41;;;;;;;2.20;2.00;;;37.00;24.10;;;;;;5013012;28;20926;-63
2022/07/18 11:05:24;;;;;;;2.27;2.07;;;36.80;24.50;;;;;;5011735;28;20489;-63
2022/07/18 11:08:02;;;;;;;3.07;2.50;;;37.40;23.90;;;;;;5010707;28;20509;-62
2022/07/18 11:10:54;;;;;;;2.40;2.30;;;37.70;23.10;;;;;;5012285;28;20430;-62
2022/07/18 11:13:23;;;;;;;2.90;2.60;;;38.70;22.40;;;;;;5008605;28;20453;-62
2022/07/18 11:16:24;;;;;;;2.00;1.90;;;39.20;22.50;;;;;;5030830;28;20543;-62
2022/07/18 11:18:50;;;;;;;2.03;1.40;;;40.30;20.80;;;;;;5011065;28;20437;-63
2022/07/18 11:21:33;;;;;;;1.90;1.80;;;41.00;20.20;;;;;;5011774;28;20528;-62
2022/07/18 11:24:05;;;;;;;1.90;1.70;;;40.70;20.20;;;;;;5012714;28;20964;-62
2022/07/18 11:26:31;;;;;;;2.10;2.00;;;40.50;20.50;;;;;;5013459;28;20841;-63
2022/07/18 11:29:04;;;;;;;2.10;1.90;;;40.00;20.40;;;;;;5005351;28;20441;-62
2022/07/18 11:31:42;;;;;;;1.97;1.77;;;40.30;20.50;;;;;;5000539;28;20274;-62
2022/07/18 11:34:07;;;;;;;2.07;1.70;;;40.70;20.30;;;;;;5012766;28;20509;-62
2022/07/18 11:36:33;;;;;;;1.80;1.70;;;40.70;20.40;;;;;;5011330;28;20580;-63
2022/07/18 11:39:02;;;;;;;2.30;1.97;;;41.10;19.40;;;;;;5012013;28;20197;-63
2022/07/18 11:41:28;;;;;;;1.83;1.73;;;41.50;19.40;;;;;;5012119;28;20218;-63
2022/07/18 11:43:55;;;;;;;1.60;1.50;;;41.00;19.40;;;;;;5011523;28;21029;-63
2022/07/18 11:46:23;;;;;;;3.37;1.90;;;40.30;20.40;;;;;;5011730;28;20681;-63
2022/07/18 11:49:06;;;;;;;1.97;1.87;;;40.20;20.30;;;;;;5011945;28;20429;-62
2022/07/18 11:51:37;;;;;;;2.13;1.93;;;40.70;20.40;;;;;;5016177;28;20444;-61
2022/07/18 11:54:04;;;;;;;2.13;2.03;;;40.10;20.40;;;;;;5011925;28;20461;-62
2022/07/18 11:56:29;;;;;;;2.23;2.13;;;39.10;20.90;;;;;;5010948;28;20456;-61
2022/07/18 11:58:56;;;;;;;4.00;2.27;;;38.10;21.90;;;;;;5012060;28;20446;-60
2022/07/18 12:01:22;;;;;;;2.37;1.93;;;37.20;21.90;;;;;;5010924;28;20305;-61
2022/07/18 12:03:49;;;;;;;1.90;1.80;;;36.60;22.00;;;;;;5012010;28;20990;-62
2022/07/18 12:06:21;;;;;;;1.90;1.80;;;36.70;22.00;;;;;;5008670;28;20290;-61
2022/07/18 12:09:05;;;;;;;2.00;1.90;;;36.40;22.50;;;;;;5014922;28;20521;-61
2022/07/18 12:11:36;;;;;;;1.90;1.80;;;35.90;22.60;;;;;;5008790;28;20512;-61
2022/07/18 12:14:14;;;;;;;3.70;2.30;;;35.30;23.10;;;;;;5010786;28;20437;-61
2022/07/18 12:16:46;;;;;;;2.97;2.53;;;35.20;23.00;;;;;;5011048;28;21039;-61
2022/07/18 12:19:24;;;;;;;1.90;1.80;;;34.80;22.70;;;;;;5011038;28;20431;-62
2022/07/18 12:22:07;;;;;;;2.10;1.90;;;34.50;23.40;;;;;;4999927;28;20493;-61
2022/07/18 12:24:33;;;;;;;2.23;2.13;;;34.20;23.90;;;;;;5011743;28;20810;-62
2022/07/18 12:27:09;;;;;;;1.97;1.87;;;34.10;24.10;;;;;;5026011;28;20453;-61
2022/07/18 12:30:19;;;;;;;2.47;2.27;;;33.80;24.70;;;;;;5011162;28;20175;-62
2022/07/18 12:32:51;;;;;;;2.23;2.03;;;33.70;25.30;;;;;;4989179;28;20450;-61
2022/07/18 12:35:31;;;;;;;2.47;2.20;;;33.60;25.50;;;;;;4988102;28;21072;-62
2022/07/18 12:38:01;;;;;;;2.33;2.23;;;33.30;25.90;;;;;;4991355;28;20444;-61
2022/07/18 12:40:44;;;;;;;2.93;2.60;;;33.40;26.30;;;;;;5011340;28;20461;-62
2022/07/18 12:43:27;;;;;;;2.60;2.40;;;33.50;26.80;;;;;;5002276;28;20516;-62
2022/07/18 12:45:55;;;;;;;2.70;2.50;;;33.30;26.20;;;;;;5008797;28;20488;-61
2022/07/18 12:48:21;;;;;;;2.20;2.10;;;33.30;26.40;;;;;;5011074;28;20446;-61
2022/07/18 12:51:05;;;;;;;4.10;2.60;;;33.30;26.20;;;;;;5009635;28;20444;-62
2022/07/18 12:53:33;;;;;;;2.13;2.00;;;33.10;26.40;;;;;;5011301;28;20437;-62